createdAt,value
2018-12-07T00:00:23.598Z,70.79
2018-12-07T00:01:26.107Z,70.97
2018-12-07T00:02:28.632Z,71.23
2018-12-07T00:03:31.088Z,71.28
2018-12-07T00:04:33.556Z,71.33
2018-12-07T00:05:36.011Z,71.31
2018-12-07T00:06:38.484Z,71.52
2018-12-07T00:07:41.039Z,71.57
2018-12-07T00:08:43.487Z,71.60
2018-12-07T00:09:45.954Z,71.72
2018-12-07T00:10:48.420Z,71.79
2018-12-07T00:11:50.878Z,71.68
2018-12-07T00:12:53.337Z,71.82
2018-12-07T00:13:55.826Z,71.70
2018-12-07T00:14:58.376Z,71.56
2018-12-07T00:16:00.832Z,71.59
2018-12-07T00:17:03.281Z,71.49
2018-12-07T00:18:05.741Z,71.54
2018-12-07T00:19:08.197Z,71.21
2018-12-07T00:20:10.669Z,71.13
2018-12-07T00:21:13.118Z,71.31
2018-12-07T00:22:15.571Z,71.25
2018-12-07T00:23:18.028Z,71.30
2018-12-07T00:24:20.477Z,71.33
2018-12-07T00:25:23.658Z,71.22
2018-12-07T00:26:26.184Z,71.05
2018-12-07T00:27:28.638Z,71.08
2018-12-07T00:28:31.116Z,70.93
2018-12-07T00:29:33.562Z,71.24
2018-12-07T00:30:36.033Z,71.06
2018-12-07T00:31:38.504Z,71.26
2018-12-07T00:32:40.963Z,71.14
2018-12-07T00:33:43.439Z,71.06
2018-12-07T00:34:45.896Z,71.20
2018-12-07T00:35:48.359Z,71.03
2018-12-07T00:36:50.819Z,71.04
2018-12-07T00:37:53.293Z,70.79
2018-12-07T00:38:55.753Z,70.80
2018-12-07T00:39:58.204Z,70.60
2018-12-07T00:41:00.677Z,71.00
2018-12-07T00:42:03.147Z,71.29
2018-12-07T00:43:05.597Z,71.25
2018-12-07T00:44:08.074Z,71.03
2018-12-07T00:45:10.598Z,71.06
2018-12-07T00:46:13.112Z,71.03
2018-12-07T00:47:15.574Z,70.94
2018-12-07T00:48:18.039Z,70.58
2018-12-07T00:49:20.494Z,70.48
2018-12-07T00:50:22.927Z,70.79
2018-12-07T00:51:25.431Z,70.82
2018-12-07T00:52:27.914Z,70.64
2018-12-07T00:53:30.352Z,70.45
2018-12-07T00:54:32.822Z,70.31
2018-12-07T00:55:37.389Z,70.35
2018-12-07T00:56:39.850Z,70.32
2018-12-07T00:57:42.327Z,70.45
2018-12-07T00:58:44.774Z,70.41
2018-12-07T00:59:47.226Z,70.32
2018-12-07T01:00:49.716Z,70.26
2018-12-07T01:01:52.192Z,70.56
2018-12-07T01:02:54.652Z,70.66
2018-12-07T01:03:57.131Z,70.25
2018-12-07T01:04:59.579Z,70.14
2018-12-07T01:06:02.022Z,70.08
2018-12-07T01:07:04.476Z,70.16
2018-12-07T01:08:06.936Z,70.29
2018-12-07T01:09:09.389Z,69.97
2018-12-07T01:10:11.943Z,70.04
2018-12-07T01:11:14.443Z,70.26
2018-12-07T01:12:16.945Z,70.16
2018-12-07T01:13:19.562Z,70.11
2018-12-07T01:14:22.128Z,70.18
2018-12-07T01:15:24.586Z,70.08
2018-12-07T01:16:27.078Z,69.95
2018-12-07T01:17:29.556Z,69.79
2018-12-07T01:18:32.029Z,70.11
2018-12-07T01:19:34.480Z,69.85
2018-12-07T01:20:36.955Z,69.86
2018-12-07T01:21:39.415Z,69.88
2018-12-07T01:22:41.899Z,69.89
2018-12-07T01:23:44.370Z,70.07
2018-12-07T01:24:46.843Z,70.23
2018-12-07T01:25:49.353Z,70.17
2018-12-07T01:26:51.844Z,70.08
2018-12-07T01:27:54.358Z,70.11
2018-12-07T01:28:56.824Z,70.16
2018-12-07T01:29:59.276Z,70.05
2018-12-07T01:31:01.748Z,70.00
2018-12-07T01:32:04.202Z,70.02
2018-12-07T01:33:06.695Z,70.08
2018-12-07T01:34:09.147Z,70.12
2018-12-07T01:35:11.677Z,70.04
2018-12-07T01:36:14.256Z,70.07
2018-12-07T01:37:16.847Z,69.90
2018-12-07T01:38:19.333Z,70.24
2018-12-07T01:39:21.787Z,70.23
2018-12-07T01:40:24.257Z,70.30
2018-12-07T01:41:26.789Z,70.34
2018-12-07T01:42:29.275Z,70.17
2018-12-07T01:43:31.767Z,70.41
2018-12-07T01:44:34.234Z,70.55
2018-12-07T01:45:36.690Z,70.41
2018-12-07T01:46:39.251Z,70.11
2018-12-07T01:47:45.976Z,70.19
2018-12-07T01:48:48.445Z,70.45
2018-12-07T01:49:50.942Z,70.35
2018-12-07T01:50:53.404Z,70.33
2018-12-07T01:51:55.896Z,70.23
2018-12-07T01:52:58.458Z,70.40
2018-12-07T01:54:00.938Z,70.06
2018-12-07T01:55:03.606Z,70.10
2018-12-07T01:56:06.082Z,70.05
2018-12-07T01:57:08.558Z,69.78
2018-12-07T01:58:11.041Z,70.42
2018-12-07T01:59:13.525Z,70.44
2018-12-07T02:00:16.115Z,70.38
2018-12-07T02:01:18.567Z,70.13
2018-12-07T02:02:21.033Z,70.06
2018-12-07T02:03:23.625Z,70.22
2018-12-07T02:04:26.253Z,70.23
2018-12-07T02:05:28.721Z,70.28
2018-12-07T02:06:31.198Z,70.44
2018-12-07T02:07:34.344Z,70.08
2018-12-07T02:08:36.819Z,70.05
2018-12-07T02:09:39.302Z,70.37
2018-12-07T02:10:41.797Z,70.25
2018-12-07T02:11:44.352Z,70.09
2018-12-07T02:12:46.835Z,70.06
2018-12-07T02:13:49.294Z,69.83
2018-12-07T02:14:51.776Z,69.75
2018-12-07T02:15:54.237Z,69.83
2018-12-07T02:16:56.705Z,69.74
2018-12-07T02:17:59.143Z,69.45
2018-12-07T02:19:01.599Z,69.59
2018-12-07T02:20:04.753Z,69.55
2018-12-07T02:21:07.221Z,69.75
2018-12-07T02:22:09.680Z,69.77
2018-12-07T02:23:12.158Z,69.66
2018-12-07T02:24:14.607Z,69.47
2018-12-07T02:25:17.088Z,69.67
2018-12-07T02:26:19.556Z,69.62
2018-12-07T02:27:22.015Z,69.66
2018-12-07T02:28:24.469Z,69.57
2018-12-07T02:29:26.974Z,69.68
2018-12-07T02:30:29.459Z,69.44
2018-12-07T02:31:31.921Z,69.30
2018-12-07T02:32:34.360Z,69.53
2018-12-07T02:33:36.814Z,69.43
2018-12-07T02:34:39.278Z,69.69
2018-12-07T02:35:41.749Z,69.53
2018-12-07T02:36:44.211Z,69.54
2018-12-07T02:37:46.671Z,69.69
2018-12-07T02:38:49.116Z,69.67
2018-12-07T02:39:51.586Z,69.73
2018-12-07T02:40:54.028Z,69.87
2018-12-07T02:41:56.474Z,69.79
2018-12-07T02:42:58.915Z,69.86
2018-12-07T02:44:01.388Z,69.89
2018-12-07T02:45:04.834Z,69.93
2018-12-07T02:46:07.286Z,69.93
2018-12-07T02:47:09.734Z,69.83
2018-12-07T02:48:12.190Z,69.53
2018-12-07T02:49:14.644Z,69.73
2018-12-07T02:50:17.114Z,69.35
2018-12-07T02:51:19.569Z,69.35
2018-12-07T02:52:22.020Z,69.72
2018-12-07T02:53:24.571Z,69.58
2018-12-07T02:54:27.022Z,69.68
2018-12-07T02:55:29.494Z,69.30
2018-12-07T02:56:31.948Z,69.36
2018-12-07T02:57:34.396Z,69.12
2018-12-07T02:58:36.833Z,69.41
2018-12-07T02:59:39.291Z,68.89
2018-12-07T03:00:41.774Z,69.10
2018-12-07T03:01:44.217Z,68.93
2018-12-07T03:02:46.663Z,69.00
2018-12-07T03:03:49.131Z,69.09
2018-12-07T03:04:51.603Z,69.20
2018-12-07T03:05:54.065Z,69.16
2018-12-07T03:06:56.511Z,68.98
2018-12-07T03:07:58.973Z,69.27
2018-12-07T03:09:01.422Z,68.82
2018-12-07T03:10:05.353Z,69.09
2018-12-07T03:11:07.811Z,68.80
2018-12-07T03:12:10.264Z,68.61
2018-12-07T03:13:12.725Z,68.45
2018-12-07T03:14:15.342Z,68.85
2018-12-07T03:15:17.864Z,68.57
2018-12-07T03:16:20.394Z,68.95
2018-12-07T03:17:22.863Z,69.07
2018-12-07T03:18:30.692Z,69.02
2018-12-07T03:19:33.152Z,69.14
2018-12-07T03:20:36.785Z,68.86
2018-12-07T03:21:39.241Z,68.90
2018-12-07T03:22:41.694Z,68.61
2018-12-07T03:23:44.135Z,68.80
2018-12-07T03:24:46.628Z,68.45
2018-12-07T03:25:49.236Z,68.70
2018-12-07T03:26:51.751Z,68.37
2018-12-07T03:27:54.219Z,68.46
2018-12-07T03:28:56.655Z,68.50
2018-12-07T03:29:59.090Z,68.28
2018-12-07T03:31:01.543Z,68.32
2018-12-07T03:32:04.183Z,68.17
2018-12-07T03:33:06.661Z,68.25
2018-12-07T03:34:09.110Z,68.45
2018-12-07T03:35:11.652Z,68.41
2018-12-07T03:36:14.115Z,68.21
2018-12-07T03:37:16.575Z,67.70
2018-12-07T03:38:19.034Z,68.05
2018-12-07T03:39:21.499Z,67.81
2018-12-07T03:40:24.116Z,68.05
2018-12-07T03:41:26.607Z,68.38
2018-12-07T03:42:29.189Z,68.46
2018-12-07T03:43:31.648Z,68.40
2018-12-07T03:44:34.109Z,68.50
2018-12-07T03:45:36.683Z,68.35
2018-12-07T03:46:39.154Z,68.71
2018-12-07T03:47:41.623Z,68.73
2018-12-07T03:48:44.128Z,68.86
2018-12-07T03:49:46.579Z,68.85
2018-12-07T03:50:49.012Z,69.03
2018-12-07T03:51:51.469Z,69.22
2018-12-07T03:52:53.933Z,69.35
2018-12-07T03:53:56.396Z,69.33
2018-12-07T03:54:58.851Z,69.19
2018-12-07T03:56:01.409Z,68.94
2018-12-07T03:57:04.019Z,68.94
2018-12-07T03:58:06.472Z,69.15
2018-12-07T03:59:08.931Z,68.88
2018-12-07T04:00:11.614Z,69.10
2018-12-07T04:01:14.131Z,69.12
2018-12-07T04:02:16.575Z,69.14
2018-12-07T04:03:19.128Z,69.18
2018-12-07T04:04:21.694Z,69.31
2018-12-07T04:05:24.141Z,69.38
2018-12-07T04:06:26.587Z,69.14
2018-12-07T04:07:29.044Z,69.16
2018-12-07T04:08:31.508Z,69.05
2018-12-07T04:09:33.982Z,69.10
2018-12-07T04:10:36.416Z,69.07
2018-12-07T04:11:38.856Z,69.06
2018-12-07T04:12:41.339Z,68.85
2018-12-07T04:13:43.823Z,68.86
2018-12-07T04:14:46.296Z,68.82
2018-12-07T04:15:48.771Z,68.81
2018-12-07T04:16:51.721Z,68.78
2018-12-07T04:17:54.312Z,68.92
2018-12-07T04:18:56.790Z,68.80
2018-12-07T04:19:59.231Z,68.72
2018-12-07T04:21:01.707Z,68.92
2018-12-07T04:22:04.246Z,68.85
2018-12-07T04:23:11.184Z,68.79
2018-12-07T04:24:13.648Z,68.56
2018-12-07T04:25:16.113Z,68.70
2018-12-07T04:26:18.577Z,68.92
2018-12-07T04:27:21.138Z,69.20
2018-12-07T04:28:23.670Z,69.11
2018-12-07T04:29:26.154Z,69.25
2018-12-07T04:30:29.028Z,69.32
2018-12-07T04:31:31.474Z,69.29
2018-12-07T04:32:33.920Z,69.25
2018-12-07T04:33:36.375Z,69.06
2018-12-07T04:34:38.834Z,69.23
2018-12-07T04:35:41.313Z,69.05
2018-12-07T04:36:43.801Z,69.26
2018-12-07T04:37:46.262Z,69.19
2018-12-07T04:38:48.820Z,69.27
2018-12-07T04:39:51.380Z,69.33
2018-12-07T04:40:54.060Z,69.13
2018-12-07T04:41:56.499Z,69.09
2018-12-07T04:42:58.944Z,69.16
2018-12-07T04:44:01.423Z,69.27
2018-12-07T04:45:04.372Z,68.88
2018-12-07T04:46:06.960Z,69.06
2018-12-07T04:47:09.408Z,69.00
2018-12-07T04:48:11.888Z,69.10
2018-12-07T04:49:14.328Z,69.10
2018-12-07T04:50:16.783Z,69.03
2018-12-07T04:51:19.260Z,69.10
2018-12-07T04:52:21.711Z,69.10
2018-12-07T04:53:24.317Z,69.12
2018-12-07T04:54:26.773Z,68.98
2018-12-07T04:55:29.259Z,68.90
2018-12-07T04:56:33.663Z,68.92
2018-12-07T04:57:36.209Z,68.93
2018-12-07T04:58:38.666Z,68.81
2018-12-07T04:59:41.169Z,68.79
2018-12-07T05:00:43.647Z,68.84
2018-12-07T05:01:46.112Z,68.97
2018-12-07T05:02:48.581Z,68.95
2018-12-07T05:03:51.034Z,69.09
2018-12-07T05:04:53.552Z,69.25
2018-12-07T05:05:56.011Z,69.38
2018-12-07T05:06:58.464Z,69.34
2018-12-07T05:08:00.921Z,69.40
2018-12-07T05:09:05.439Z,69.00
2018-12-07T05:10:07.983Z,69.12
2018-12-07T05:11:10.443Z,69.26
2018-12-07T05:12:12.914Z,69.18
2018-12-07T05:13:15.404Z,69.26
2018-12-07T05:14:17.868Z,69.18
2018-12-07T05:15:20.321Z,69.12
2018-12-07T05:16:22.791Z,69.25
2018-12-07T05:17:25.256Z,69.33
2018-12-07T05:18:27.720Z,69.29
2018-12-07T05:19:30.154Z,69.09
2018-12-07T05:20:32.597Z,69.15
2018-12-07T05:21:35.055Z,69.06
2018-12-07T05:22:37.520Z,68.81
2018-12-07T05:23:39.974Z,68.93
2018-12-07T05:24:42.423Z,69.10
2018-12-07T05:25:44.873Z,69.16
2018-12-07T05:26:47.337Z,69.20
2018-12-07T05:27:49.800Z,68.83
2018-12-07T05:28:52.241Z,68.87
2018-12-07T05:29:54.698Z,68.88
2018-12-07T05:30:57.150Z,68.75
2018-12-07T05:31:59.634Z,68.92
2018-12-07T05:33:02.105Z,68.67
2018-12-07T05:34:04.560Z,68.79
2018-12-07T05:35:07.298Z,68.77
2018-12-07T05:36:09.834Z,68.88
2018-12-07T05:37:12.304Z,68.63
2018-12-07T05:38:14.805Z,68.60
2018-12-07T05:39:17.245Z,68.63
2018-12-07T05:40:19.696Z,68.46
2018-12-07T05:41:22.153Z,68.41
2018-12-07T05:42:24.621Z,68.37
2018-12-07T05:43:27.086Z,68.25
2018-12-07T05:44:29.528Z,68.44
2018-12-07T05:45:31.965Z,68.38
2018-12-07T05:46:34.417Z,68.41
2018-12-07T05:47:36.875Z,68.09
2018-12-07T05:48:39.324Z,68.30
2018-12-07T05:49:41.776Z,68.20
2018-12-07T05:50:44.245Z,68.18
2018-12-07T05:51:46.702Z,68.05
2018-12-07T05:52:49.164Z,68.06
2018-12-07T05:53:51.710Z,68.09
2018-12-07T05:54:54.287Z,68.02
2018-12-07T05:55:56.763Z,67.95
2018-12-07T05:56:59.327Z,67.83
2018-12-07T05:58:01.821Z,68.13
2018-12-07T05:59:04.503Z,68.24
2018-12-07T06:00:07.664Z,68.11
2018-12-07T06:01:10.309Z,68.06
2018-12-07T06:02:12.847Z,68.19
2018-12-07T06:03:15.305Z,67.88
2018-12-07T06:04:17.903Z,67.99
2018-12-07T06:05:20.428Z,67.91
2018-12-07T06:06:22.921Z,67.61
2018-12-07T06:07:25.391Z,67.82
2018-12-07T06:08:27.987Z,67.47
2018-12-07T06:09:30.540Z,67.71
2018-12-07T06:10:33.023Z,67.91
2018-12-07T06:11:35.472Z,67.61
2018-12-07T06:12:38.155Z,67.61
2018-12-07T06:13:40.715Z,67.49
2018-12-07T06:14:43.207Z,67.69
2018-12-07T06:15:45.676Z,67.80
2018-12-07T06:16:48.408Z,67.50
2018-12-07T06:17:50.908Z,67.53
2018-12-07T06:18:53.372Z,67.32
2018-12-07T06:19:55.946Z,67.20
2018-12-07T06:20:58.416Z,67.48
2018-12-07T06:22:00.916Z,67.23
2018-12-07T06:23:03.384Z,67.38
2018-12-07T06:24:05.848Z,67.18
2018-12-07T06:25:08.331Z,67.56
2018-12-07T06:26:10.811Z,67.33
2018-12-07T06:27:13.776Z,67.35
2018-12-07T06:28:16.502Z,67.36
2018-12-07T06:29:18.966Z,67.04
2018-12-07T06:30:21.508Z,66.81
2018-12-07T06:31:24.006Z,67.16
2018-12-07T06:32:26.532Z,67.22
2018-12-07T06:33:29.187Z,67.24
2018-12-07T06:34:31.666Z,67.21
2018-12-07T06:35:34.274Z,67.23
2018-12-07T06:36:36.773Z,67.25
2018-12-07T06:37:39.244Z,66.89
2018-12-07T06:38:41.708Z,67.05
2018-12-07T06:39:44.319Z,67.14
2018-12-07T06:40:46.897Z,67.13
2018-12-07T06:41:49.407Z,66.97
2018-12-07T06:42:52.088Z,67.05
2018-12-07T06:43:54.608Z,67.15
2018-12-07T06:44:57.092Z,67.26
2018-12-07T06:45:59.612Z,67.12
2018-12-07T06:47:02.070Z,66.99
2018-12-07T06:48:04.518Z,67.23
2018-12-07T06:49:08.347Z,67.04
2018-12-07T06:50:10.912Z,67.15
2018-12-07T06:51:13.381Z,67.07
2018-12-07T06:52:15.815Z,66.89
2018-12-07T06:53:18.322Z,67.02
2018-12-07T06:54:20.809Z,67.03
2018-12-07T06:55:23.286Z,67.40
2018-12-07T06:56:25.769Z,67.39
2018-12-07T06:57:28.228Z,67.37
2018-12-07T06:58:30.691Z,67.32
2018-12-07T06:59:33.159Z,67.07
2018-12-07T07:00:35.629Z,67.20
2018-12-07T07:01:38.167Z,67.22
2018-12-07T07:02:40.669Z,67.45
2018-12-07T07:03:43.107Z,67.39
2018-12-07T07:04:45.581Z,67.39
2018-12-07T07:05:48.075Z,67.45
2018-12-07T07:06:50.544Z,67.69
2018-12-07T07:07:53.081Z,67.43
2018-12-07T07:08:55.531Z,67.31
2018-12-07T07:09:58.040Z,67.26
2018-12-07T07:11:00.533Z,67.70
2018-12-07T07:12:03.016Z,67.85
2018-12-07T07:13:05.644Z,67.91
2018-12-07T07:14:08.157Z,67.82
2018-12-07T07:15:10.844Z,67.73
2018-12-07T07:16:13.378Z,67.96
2018-12-07T07:17:15.852Z,68.03
2018-12-07T07:18:18.321Z,67.55
2018-12-07T07:19:20.764Z,67.64
2018-12-07T07:20:23.310Z,67.53
2018-12-07T07:21:25.864Z,67.88
2018-12-07T07:22:28.325Z,67.93
2018-12-07T07:23:30.777Z,67.68
2018-12-07T07:24:33.242Z,67.94
2018-12-07T07:25:35.708Z,67.80
2018-12-07T07:26:38.193Z,67.88
2018-12-07T07:27:40.654Z,67.78
2018-12-07T07:28:43.124Z,67.87
2018-12-07T07:29:46.029Z,67.98
2018-12-07T07:30:48.473Z,67.93
2018-12-07T07:31:50.941Z,67.70
2018-12-07T07:32:53.523Z,67.90
2018-12-07T07:33:56.024Z,67.64
2018-12-07T07:34:58.486Z,67.61
2018-12-07T07:36:00.969Z,67.69
2018-12-07T07:37:03.445Z,67.82
2018-12-07T07:38:06.499Z,67.56
2018-12-07T07:39:08.952Z,67.88
2018-12-07T07:40:11.410Z,67.79
2018-12-07T07:41:13.905Z,67.68
2018-12-07T07:42:16.394Z,67.32
2018-12-07T07:43:18.871Z,67.55
2018-12-07T07:44:21.336Z,67.55
2018-12-07T07:45:23.792Z,67.53
2018-12-07T07:46:26.298Z,67.70
2018-12-07T07:47:28.780Z,67.59
2018-12-07T07:48:31.256Z,67.33
2018-12-07T07:49:33.740Z,67.72
2018-12-07T07:50:36.206Z,67.50
2018-12-07T07:51:38.655Z,67.46
2018-12-07T07:52:41.234Z,67.37
2018-12-07T07:53:43.701Z,67.40
2018-12-07T07:54:46.245Z,67.19
2018-12-07T07:55:48.857Z,67.59
2018-12-07T07:56:51.335Z,67.37
2018-12-07T07:57:53.901Z,67.10
2018-12-07T07:58:56.408Z,67.52
2018-12-07T07:59:58.899Z,67.37
2018-12-07T08:01:01.355Z,67.03
2018-12-07T08:02:04.063Z,66.76
2018-12-07T08:03:06.567Z,66.76
2018-12-07T08:04:09.061Z,66.73
2018-12-07T08:05:11.530Z,66.84
2018-12-07T08:06:14.045Z,66.48
2018-12-07T08:07:16.517Z,66.65
2018-12-07T08:08:19.115Z,66.61
2018-12-07T08:09:21.600Z,66.60
2018-12-07T08:10:24.051Z,66.86
2018-12-07T08:11:26.513Z,66.88
2018-12-07T08:12:28.974Z,66.96
2018-12-07T08:13:31.530Z,66.65
2018-12-07T08:14:34.160Z,66.68
2018-12-07T08:15:36.643Z,66.58
2018-12-07T08:16:39.101Z,66.79
2018-12-07T08:17:41.588Z,66.85
2018-12-07T08:18:44.067Z,67.10
2018-12-07T08:19:47.272Z,66.97
2018-12-07T08:20:49.721Z,66.66
2018-12-07T08:21:52.167Z,66.39
2018-12-07T08:22:54.620Z,66.60
2018-12-07T08:23:57.095Z,66.55
2018-12-07T08:24:59.552Z,66.47
2018-12-07T08:26:01.996Z,66.47
2018-12-07T08:27:04.446Z,66.33
2018-12-07T08:28:06.915Z,66.30
2018-12-07T08:29:09.384Z,66.25
2018-12-07T08:30:12.211Z,66.44
2018-12-07T08:31:14.660Z,66.09
2018-12-07T08:32:17.113Z,66.34
2018-12-07T08:33:19.576Z,66.03
2018-12-07T08:34:22.037Z,66.31
2018-12-07T08:35:24.498Z,66.64
2018-12-07T08:36:26.956Z,66.33
2018-12-07T08:37:29.425Z,66.42
2018-12-07T08:38:31.872Z,66.08
2018-12-07T08:39:34.440Z,66.14
2018-12-07T08:40:36.943Z,65.42
2018-12-07T08:41:39.413Z,65.74
2018-12-07T08:42:41.948Z,65.87
2018-12-07T08:43:44.408Z,66.02
2018-12-07T08:44:46.887Z,66.47
2018-12-07T08:45:49.360Z,66.03
2018-12-07T08:46:51.817Z,66.57
2018-12-07T08:47:54.260Z,66.17
2018-12-07T08:48:56.698Z,66.16
2018-12-07T08:49:59.170Z,65.86
2018-12-07T08:51:01.640Z,65.97
2018-12-07T08:52:04.092Z,66.08
2018-12-07T08:53:09.620Z,65.91
2018-12-07T08:54:12.060Z,65.88
2018-12-07T08:55:14.526Z,65.66
2018-12-07T08:56:16.981Z,65.67
2018-12-07T08:57:19.423Z,65.17
2018-12-07T08:58:21.890Z,65.22
2018-12-07T08:59:24.336Z,64.93
2018-12-07T09:00:26.807Z,64.94
2018-12-07T09:01:29.285Z,65.06
2018-12-07T09:02:31.754Z,65.16
2018-12-07T09:03:34.277Z,65.02
2018-12-07T09:04:36.784Z,65.32
2018-12-07T09:05:39.277Z,64.86
2018-12-07T09:06:41.735Z,64.89
2018-12-07T09:07:44.209Z,65.12
2018-12-07T09:08:46.652Z,65.17
2018-12-07T09:09:49.099Z,65.20
2018-12-07T09:10:51.590Z,64.79
2018-12-07T09:11:54.034Z,65.27
2018-12-07T09:12:56.488Z,65.24
2018-12-07T09:13:58.944Z,64.75
2018-12-07T09:15:01.399Z,65.20
2018-12-07T09:16:03.975Z,64.70
2018-12-07T09:17:06.454Z,64.94
2018-12-07T09:18:08.921Z,65.09
2018-12-07T09:19:11.385Z,65.36
2018-12-07T09:20:13.847Z,64.60
2018-12-07T09:21:16.324Z,64.77
2018-12-07T09:22:18.785Z,65.41
2018-12-07T09:23:21.242Z,65.18
2018-12-07T09:24:23.730Z,65.00
2018-12-07T09:25:26.184Z,64.64
2018-12-07T09:26:28.651Z,64.65
2018-12-07T09:27:31.181Z,64.33
2018-12-07T09:28:33.669Z,64.21
2018-12-07T09:29:36.129Z,63.76
2018-12-07T09:30:38.590Z,64.25
2018-12-07T09:31:41.058Z,64.74
2018-12-07T09:32:43.549Z,64.64
2018-12-07T09:33:46.057Z,64.67
2018-12-07T09:34:48.499Z,64.46
2018-12-07T09:35:50.942Z,64.63
2018-12-07T09:36:53.415Z,64.13
2018-12-07T09:37:55.864Z,64.76
2018-12-07T09:38:58.313Z,64.83
2018-12-07T09:40:00.776Z,64.47
2018-12-07T09:41:03.268Z,64.64
2018-12-07T09:42:05.772Z,64.33
2018-12-07T09:43:08.239Z,64.90
2018-12-07T09:44:10.686Z,64.93
2018-12-07T09:45:13.227Z,64.59
2018-12-07T09:46:15.675Z,64.35
2018-12-07T09:47:18.168Z,64.25
2018-12-07T09:48:20.628Z,64.51
2018-12-07T09:49:23.195Z,64.08
2018-12-07T09:50:25.667Z,64.68
2018-12-07T09:51:28.098Z,64.58
2018-12-07T09:52:30.595Z,64.26
2018-12-07T09:53:34.478Z,64.09
2018-12-07T09:54:37.205Z,63.88
2018-12-07T09:55:39.678Z,64.26
2018-12-07T09:56:42.127Z,64.30
2018-12-07T09:57:44.612Z,64.23
2018-12-07T09:58:47.215Z,64.27
2018-12-07T09:59:49.671Z,64.57
2018-12-07T10:00:52.113Z,64.48
2018-12-07T10:01:54.609Z,64.36
2018-12-07T10:02:57.108Z,64.02
2018-12-07T10:03:59.650Z,63.90
2018-12-07T10:05:02.139Z,63.96
2018-12-07T10:06:04.954Z,64.16
2018-12-07T10:07:07.399Z,63.80
2018-12-07T10:08:09.872Z,63.84
2018-12-07T10:09:12.394Z,63.50
2018-12-07T10:10:14.922Z,63.62
2018-12-07T10:11:17.413Z,64.19
2018-12-07T10:12:19.892Z,64.12
2018-12-07T10:13:22.432Z,63.81
2018-12-07T10:14:24.909Z,64.16
2018-12-07T10:15:27.405Z,63.85
2018-12-07T10:16:29.874Z,64.19
2018-12-07T10:17:32.355Z,64.22
2018-12-07T10:18:34.820Z,64.05
2018-12-07T10:19:37.276Z,64.11
2018-12-07T10:20:39.723Z,64.08
2018-12-07T10:21:42.219Z,64.03
2018-12-07T10:22:44.730Z,63.54
2018-12-07T10:23:47.197Z,63.66
2018-12-07T10:24:49.750Z,64.02
2018-12-07T10:25:52.209Z,64.01
2018-12-07T10:26:56.972Z,64.18
2018-12-07T10:27:59.464Z,63.50
2018-12-07T10:29:01.943Z,64.12
2018-12-07T10:30:05.007Z,64.04
2018-12-07T10:31:07.456Z,64.04
2018-12-07T10:32:09.907Z,63.88
2018-12-07T10:33:12.364Z,63.62
2018-12-07T10:34:14.848Z,63.43
2018-12-07T10:35:17.336Z,63.37
2018-12-07T10:36:19.801Z,63.75
2018-12-07T10:37:22.277Z,63.53
2018-12-07T10:38:24.806Z,64.08
2018-12-07T10:39:27.285Z,64.27
2018-12-07T10:40:29.768Z,63.88
2018-12-07T10:41:32.213Z,64.61
2018-12-07T10:42:34.719Z,64.37
2018-12-07T10:43:37.178Z,64.27
2018-12-07T10:44:39.736Z,64.32
2018-12-07T10:45:42.217Z,64.24
2018-12-07T10:46:44.685Z,64.05
2018-12-07T10:47:50.265Z,64.30
2018-12-07T10:48:51.656Z,64.08
2018-12-07T10:49:54.139Z,64.38
2018-12-07T10:50:56.598Z,64.04
2018-12-07T10:51:59.200Z,63.82
2018-12-07T10:53:01.695Z,64.59
2018-12-07T10:54:04.185Z,64.46
2018-12-07T10:55:08.072Z,64.17
2018-12-07T10:56:10.768Z,64.17
2018-12-07T10:57:13.276Z,64.16
2018-12-07T10:58:15.776Z,64.40
2018-12-07T10:59:18.626Z,64.33
2018-12-07T11:00:26.697Z,64.24
2018-12-07T11:01:34.872Z,64.14
2018-12-07T11:02:43.106Z,64.26
2018-12-07T11:03:51.327Z,63.73
2018-12-07T11:04:59.341Z,63.84
2018-12-07T11:06:07.512Z,63.96
2018-12-07T11:07:15.586Z,63.74
2018-12-07T11:08:23.629Z,63.47
2018-12-07T11:11:12.060Z,63.55
2018-12-07T11:13:56.781Z,63.92
2018-12-07T11:15:05.003Z,63.99
2018-12-07T11:16:13.035Z,63.57
2018-12-07T11:17:21.243Z,63.45
2018-12-07T11:18:29.355Z,63.61
2018-12-07T11:19:37.607Z,63.93
2018-12-07T11:22:25.344Z,63.11
2018-12-07T11:25:11.176Z,63.77
2018-12-07T11:26:19.279Z,63.76
2018-12-07T11:27:27.371Z,63.77
2018-12-07T11:28:35.550Z,63.93
2018-12-07T11:29:43.687Z,63.74
2018-12-07T11:30:51.734Z,63.13
2018-12-07T11:32:00.003Z,63.47
2018-12-07T11:33:08.062Z,63.06
2018-12-07T11:34:12.615Z,62.82
2018-12-07T11:35:16.755Z,63.25
2018-12-07T11:36:19.207Z,63.08
2018-12-07T11:37:21.686Z,62.48
2018-12-07T11:38:24.160Z,62.65
2018-12-07T11:39:26.629Z,62.10
2018-12-07T11:40:29.099Z,62.56
2018-12-07T11:41:31.577Z,62.63
2018-12-07T11:42:34.050Z,62.52
2018-12-07T11:43:36.521Z,62.59
2018-12-07T11:44:38.973Z,62.36
2018-12-07T11:45:41.438Z,62.06
2018-12-07T11:46:43.907Z,62.29
2018-12-07T11:47:46.392Z,61.93
2018-12-07T11:48:48.851Z,62.31
2018-12-07T11:49:51.338Z,62.20
2018-12-07T11:50:53.791Z,61.74
2018-12-07T11:51:56.255Z,62.27
2018-12-07T11:52:58.726Z,62.52
2018-12-07T11:54:01.190Z,62.93
2018-12-07T11:55:05.312Z,62.92
2018-12-07T11:56:07.773Z,61.90
2018-12-07T11:57:10.223Z,61.73
2018-12-07T11:58:12.696Z,62.34
2018-12-07T11:59:15.210Z,62.12
2018-12-07T12:00:17.700Z,62.06
2018-12-07T12:01:20.316Z,61.84
2018-12-07T12:02:26.289Z,61.45
2018-12-07T12:03:27.313Z,60.85
2018-12-07T12:04:29.791Z,61.00
2018-12-07T12:05:32.255Z,61.25
2018-12-07T12:06:34.738Z,61.38
2018-12-07T12:07:37.226Z,61.00
2018-12-07T12:08:39.825Z,61.65
2018-12-07T12:09:42.266Z,60.91
2018-12-07T12:10:44.783Z,61.59
2018-12-07T12:11:47.303Z,61.22
2018-12-07T12:12:49.810Z,62.05
2018-12-07T12:13:52.304Z,61.84
2018-12-07T12:14:54.782Z,61.53
2018-12-07T12:15:57.324Z,61.21
2018-12-07T12:16:59.788Z,61.76
2018-12-07T12:18:02.264Z,60.96
2018-12-07T12:19:04.725Z,61.23
2018-12-07T12:20:08.363Z,61.20
2018-12-07T12:21:10.853Z,60.53
2018-12-07T12:22:13.345Z,60.75
2018-12-07T12:23:15.819Z,60.46
2018-12-07T12:24:18.278Z,60.82
2018-12-07T12:25:20.789Z,61.29
2018-12-07T12:26:23.249Z,61.52
2018-12-07T12:27:25.692Z,61.14
2018-12-07T12:28:28.205Z,60.69
2018-12-07T12:29:30.690Z,60.60
2018-12-07T12:30:33.153Z,60.79
2018-12-07T12:31:35.604Z,60.46
2018-12-07T12:32:38.054Z,60.95
2018-12-07T12:33:40.524Z,59.71
2018-12-07T12:34:42.995Z,60.15
2018-12-07T12:35:45.464Z,59.09
2018-12-07T12:36:47.904Z,59.83
2018-12-07T12:37:50.351Z,59.68
2018-12-07T12:38:52.796Z,59.59
2018-12-07T12:39:55.285Z,59.14
2018-12-07T12:40:57.736Z,58.37
2018-12-07T12:42:00.188Z,58.80
2018-12-07T12:43:02.641Z,58.97
2018-12-07T12:44:05.092Z,58.44
2018-12-07T12:45:07.645Z,58.92
2018-12-07T12:46:10.105Z,59.06
2018-12-07T12:47:12.542Z,58.61
2018-12-07T12:48:15.210Z,58.47
2018-12-07T12:49:17.659Z,58.15
2018-12-07T12:50:25.819Z,58.03
2018-12-07T12:51:28.268Z,56.92
2018-12-07T12:52:30.787Z,57.22
2018-12-07T12:53:33.283Z,57.02
2018-12-07T12:54:35.733Z,56.98
2018-12-07T12:55:38.188Z,56.76
2018-12-07T12:56:40.635Z,57.45
2018-12-07T12:57:43.259Z,57.88
2018-12-07T12:58:45.709Z,57.09
2018-12-07T12:59:48.487Z,57.15
2018-12-07T13:00:50.955Z,57.24
2018-12-07T13:01:53.447Z,56.65
2018-12-07T13:02:55.944Z,56.72
2018-12-07T13:03:58.388Z,56.79
2018-12-07T13:05:00.856Z,56.12
2018-12-07T13:06:03.329Z,56.51
2018-12-07T13:07:05.946Z,56.39
2018-12-07T13:08:08.402Z,56.49
2018-12-07T13:09:10.849Z,56.15
2018-12-07T13:10:13.589Z,56.76
2018-12-07T13:11:17.180Z,57.14
2018-12-07T13:12:19.742Z,57.25
2018-12-07T13:13:22.193Z,57.17
2018-12-07T13:14:24.839Z,57.60
2018-12-07T13:15:27.391Z,57.09
2018-12-07T13:16:29.880Z,56.30
2018-12-07T13:17:32.380Z,56.97
2018-12-07T13:18:34.820Z,57.18
2018-12-07T13:19:37.296Z,57.25
2018-12-07T13:20:39.741Z,56.84
2018-12-07T13:21:42.207Z,56.64
2018-12-07T13:22:44.668Z,56.45
2018-12-07T13:23:47.133Z,56.45
2018-12-07T13:24:49.599Z,57.04
2018-12-07T13:25:52.056Z,56.86
2018-12-07T13:26:54.559Z,57.14
2018-12-07T13:27:57.033Z,55.85
2018-12-07T13:28:59.504Z,55.75
2018-12-07T13:30:01.976Z,56.22
2018-12-07T13:31:04.470Z,56.58
2018-12-07T13:32:07.088Z,56.45
2018-12-07T13:33:09.624Z,56.61
2018-12-07T13:34:12.112Z,56.69